Time;durP1;ratioP1;P1;durP2;ratioP2;P2;SDS_P1;SDS_P2;PMS_P1;PMS_P2;Temp;Humidity;BMP_temperature;BMP_pressure;BME280_temperature;BME280_humidity;BME280_pressure;Samples;Min_cycle;Max_cycle;Signal;HPM_P1;HPM_P2
2022/07/15 00:00:40;;;;;;;5.00;4.60;;;15.20;99.90;;;;;;5051548;28;20596;-64
2022/07/15 00:03:06;;;;;;;5.73;5.10;;;15.20;99.90;;;;;;5049739;28;20182;-64
2022/07/15 00:05:32;;;;;;;5.57;5.10;;;15.10;99.90;;;;;;5043221;28;20191;-66
2022/07/15 00:08:00;;;;;;;6.03;5.57;;;15.10;99.90;;;;;;5037130;28;20215;-66
2022/07/15 00:10:27;;;;;;;6.07;5.63;;;15.00;99.90;;;;;;5032695;28;20171;-64
2022/07/15 00:12:58;;;;;;;5.70;5.20;;;15.00;99.90;;;;;;5047479;28;20194;-64
2022/07/15 00:15:26;;;;;;;6.43;5.87;;;14.90;99.90;;;;;;5052558;28;20258;-64
2022/07/15 00:17:53;;;;;;;6.67;5.77;;;14.80;99.90;;;;;;5042290;28;20207;-64
2022/07/15 00:20:19;;;;;;;6.80;6.13;;;14.70;99.90;;;;;;5033241;28;20227;-66
2022/07/15 00:22:45;;;;;;;6.47;6.00;;;14.70;99.90;;;;;;5045775;28;20226;-66
2022/07/15 00:25:12;;;;;;;7.47;6.03;;;14.70;99.90;;;;;;5052786;28;20201;-66
2022/07/15 00:27:54;;;;;;;6.07;5.67;;;14.60;99.90;;;;;;5050095;28;20242;-66
2022/07/15 00:30:20;;;;;;;6.20;5.60;;;14.60;99.90;;;;;;5052543;28;20183;-66
2022/07/15 00:32:46;;;;;;;6.30;5.83;;;14.50;99.90;;;;;;5050553;28;20180;-66
2022/07/15 00:35:12;;;;;;;6.90;5.93;;;14.40;99.90;;;;;;5052466;28;20549;-66
2022/07/15 00:37:37;;;;;;;7.17;5.97;;;14.40;99.90;;;;;;5033815;28;20264;-66
2022/07/15 00:40:04;;;;;;;6.37;5.87;;;14.40;99.90;;;;;;5037241;28;20187;-66
2022/07/15 00:42:44;;;;;;;6.40;5.83;;;14.40;99.90;;;;;;5052152;28;20692;-66
2022/07/15 00:45:22;;;;;;;6.77;5.73;;;14.40;99.90;;;;;;5045581;28;20175;-66
2022/07/15 00:47:53;;;;;;;6.03;5.53;;;14.50;99.90;;;;;;5032241;28;20592;-66
2022/07/15 00:50:20;;;;;;;6.67;6.17;;;14.60;99.90;;;;;;5039375;28;20594;-66
2022/07/15 00:52:54;;;;;;;6.97;6.27;;;14.70;99.90;;;;;;5052144;28;20723;-66
2022/07/15 00:55:21;;;;;;;9.07;6.27;;;14.80;99.90;;;;;;5045447;28;20249;-66
2022/07/15 00:57:49;;;;;;;6.60;5.87;;;14.90;99.90;;;;;;5032123;28;20195;-67
2022/07/15 01:00:15;;;;;;;6.17;5.60;;;15.00;99.90;;;;;;5047414;28;20587;-66
2022/07/15 01:02:50;;;;;;;8.80;6.47;;;15.10;99.90;;;;;;5035250;28;20210;-66
2022/07/15 01:05:18;;;;;;;6.73;6.13;;;15.10;99.90;;;;;;5035387;28;20278;-66
2022/07/15 01:07:45;;;;;;;7.20;5.80;;;15.10;99.90;;;;;;5031976;28;20642;-66
2022/07/15 01:10:10;;;;;;;9.13;6.50;;;15.00;99.90;;;;;;5032133;28;20266;-66
2022/07/15 01:12:37;;;;;;;6.90;6.30;;;15.00;99.90;;;;;;5032055;28;20207;-66
2022/07/15 01:15:04;;;;;;;6.87;6.27;;;15.00;99.90;;;;;;5031927;28;20195;-66
2022/07/15 01:17:31;;;;;;;7.63;6.10;;;14.90;99.90;;;;;;5031880;28;20187;-66
2022/07/15 01:19:57;;;;;;;6.73;6.03;;;14.90;99.90;;;;;;5032231;28;20203;-66
2022/07/15 01:22:23;;;;;;;9.00;6.17;;;14.90;99.90;;;;;;5019742;28;20208;-66
2022/07/15 01:24:49;;;;;;;6.90;6.10;;;14.90;99.90;;;;;;5011861;28;20176;-66
2022/07/15 01:27:15;;;;;;;9.53;6.10;;;14.80;99.90;;;;;;5011152;28;20200;-66
2022/07/15 01:29:41;;;;;;;6.70;6.20;;;14.80;99.90;;;;;;5011879;28;20234;-66
2022/07/15 01:32:06;;;;;;;7.60;6.90;;;14.80;99.90;;;;;;5012182;28;20179;-66
2022/07/15 01:34:32;;;;;;;7.10;6.53;;;14.80;99.90;;;;;;5022418;28;20183;-66
2022/07/15 01:36:58;;;;;;;7.90;7.10;;;14.90;99.90;;;;;;5037502;28;20222;-66
2022/07/15 01:39:23;;;;;;;9.50;6.80;;;14.90;99.90;;;;;;5051637;28;20182;-66
2022/07/15 01:41:49;;;;;;;7.53;6.07;;;14.90;99.90;;;;;;5045422;28;20214;-65
2022/07/15 01:44:14;;;;;;;8.77;6.80;;;15.00;99.90;;;;;;5031390;28;20187;-66
2022/07/15 01:46:40;;;;;;;6.67;6.17;;;15.00;99.90;;;;;;5035869;28;20213;-65
2022/07/15 01:49:21;;;;;;;9.73;6.37;;;15.00;99.90;;;;;;5050470;28;20281;-66
2022/07/15 01:51:47;;;;;;;8.73;6.63;;;14.90;99.90;;;;;;5045813;28;20185;-66
2022/07/15 01:54:13;;;;;;;7.53;6.50;;;15.00;99.90;;;;;;5031576;28;20176;-66
2022/07/15 01:56:39;;;;;;;7.20;6.50;;;15.00;99.90;;;;;;5049024;28;20731;-66
2022/07/15 01:59:04;;;;;;;6.50;5.87;;;15.10;99.90;;;;;;5051564;28;20187;-65
2022/07/15 02:01:30;;;;;;;9.37;7.40;;;15.10;99.90;;;;;;5034623;28;20254;-66
2022/07/15 02:03:56;;;;;;;6.57;6.00;;;15.20;99.90;;;;;;5050782;28;20183;-67
2022/07/15 02:06:22;;;;;;;8.57;6.50;;;15.20;99.90;;;;;;5049265;28;20207;-66
2022/07/15 02:08:48;;;;;;;7.50;6.80;;;15.30;99.90;;;;;;5031704;28;20261;-66
2022/07/15 02:11:14;;;;;;;8.90;6.60;;;15.40;99.90;;;;;;5041853;28;20214;-65
2022/07/15 02:13:40;;;;;;;7.43;5.37;;;15.50;99.90;;;;;;5032363;28;20672;-66
2022/07/15 02:16:05;;;;;;;6.80;6.07;;;15.50;99.90;;;;;;5031318;28;20202;-65
2022/07/15 02:18:31;;;;;;;8.60;5.87;;;15.50;99.90;;;;;;5045379;28;20187;-65
2022/07/15 02:20:57;;;;;;;7.00;6.30;;;15.50;99.90;;;;;;5046354;28;20183;-65
2022/07/15 02:23:23;;;;;;;7.00;6.33;;;15.40;99.90;;;;;;5038985;28;20269;-65
2022/07/15 02:25:49;;;;;;;6.67;6.03;;;15.30;99.90;;;;;;5048841;28;20190;-68
2022/07/15 02:28:15;;;;;;;8.20;6.00;;;15.30;99.90;;;;;;5030635;28;20217;-69
2022/07/15 02:30:42;;;;;;;9.07;6.40;;;15.30;99.90;;;;;;5033439;28;20322;-68
2022/07/15 02:33:09;;;;;;;9.17;6.37;;;15.30;99.90;;;;;;5047792;28;20171;-70
2022/07/15 02:35:35;;;;;;;7.30;6.60;;;15.30;99.90;;;;;;5039806;28;20183;-70
2022/07/15 02:38:01;;;;;;;9.43;6.83;;;15.20;99.90;;;;;;5051963;28;20337;-69
2022/07/15 02:40:28;;;;;;;11.57;6.57;;;15.20;99.90;;;;;;5039594;28;20183;-67
2022/07/15 02:42:57;;;;;;;8.50;6.23;;;15.20;99.90;;;;;;5032414;28;20249;-69
2022/07/15 02:45:25;;;;;;;8.77;7.27;;;15.20;99.90;;;;;;5043385;28;20183;-70
2022/07/15 02:47:51;;;;;;;13.03;7.20;;;15.20;99.90;;;;;;5050715;28;20618;-68
2022/07/15 02:50:17;;;;;;;8.50;6.73;;;15.20;99.90;;;;;;5032728;28;20211;-68
2022/07/15 02:52:43;;;;;;;11.10;7.20;;;15.20;99.90;;;;;;5049823;28;20183;-68
2022/07/15 02:55:10;;;;;;;7.20;6.00;;;15.20;99.90;;;;;;5051960;28;20645;-68
2022/07/15 02:57:36;;;;;;;7.97;6.40;;;15.20;99.90;;;;;;5034952;28;20203;-70
2022/07/15 03:00:04;;;;;;;13.37;6.47;;;15.10;99.90;;;;;;5033709;28;20294;-68
2022/07/15 03:02:30;;;;;;;12.17;6.90;;;15.00;99.90;;;;;;5053158;28;20236;-67
2022/07/15 03:04:56;;;;;;;6.47;5.90;;;14.90;99.90;;;;;;5035719;28;20184;-67
2022/07/15 03:07:22;;;;;;;6.93;6.27;;;14.90;99.90;;;;;;5035853;28;20198;-68
2022/07/15 03:09:48;;;;;;;8.27;6.70;;;14.90;99.90;;;;;;5035455;28;20175;-68
2022/07/15 03:12:13;;;;;;;6.37;5.80;;;14.80;99.90;;;;;;5035756;28;20202;-68
2022/07/15 03:14:40;;;;;;;7.47;6.30;;;14.80;99.90;;;;;;5034095;28;20178;-72
2022/07/15 03:17:06;;;;;;;7.70;6.47;;;14.70;99.90;;;;;;5035533;28;20571;-68
2022/07/15 03:19:33;;;;;;;11.13;6.33;;;14.70;99.90;;;;;;5035834;28;20199;-68
2022/07/15 03:21:59;;;;;;;9.43;5.97;;;14.70;99.90;;;;;;5035202;28;20262;-67
2022/07/15 03:24:25;;;;;;;7.87;6.13;;;14.70;99.90;;;;;;5035411;28;20175;-69
2022/07/15 03:26:51;;;;;;;11.57;6.33;;;14.70;99.90;;;;;;5034918;28;20199;-67
2022/07/15 03:29:16;;;;;;;14.63;6.30;;;14.60;99.90;;;;;;5035765;28;20210;-68
2022/07/15 03:31:43;;;;;;;7.03;6.13;;;14.60;99.90;;;;;;5035532;28;20179;-69
2022/07/15 03:34:10;;;;;;;10.70;6.20;;;14.60;99.90;;;;;;5035386;28;20646;-68
2022/07/15 03:36:37;;;;;;;7.50;5.83;;;14.60;99.90;;;;;;5041207;28;20211;-68
2022/07/15 03:39:04;;;;;;;7.60;6.23;;;14.60;99.90;;;;;;5055129;28;20249;-70
2022/07/15 03:41:29;;;;;;;7.53;6.63;;;14.50;99.90;;;;;;5045631;28;20183;-67
2022/07/15 03:43:55;;;;;;;7.47;6.73;;;14.50;99.90;;;;;;5034873;28;20415;-68
2022/07/15 03:46:21;;;;;;;7.57;6.87;;;14.40;99.90;;;;;;5042706;28;20249;-68
2022/07/15 03:48:46;;;;;;;14.30;6.30;;;14.30;99.90;;;;;;5036686;28;20294;-70
2022/07/15 03:51:12;;;;;;;8.17;6.97;;;14.20;99.90;;;;;;5040316;28;20187;-68
2022/07/15 03:53:38;;;;;;;7.63;6.30;;;14.10;99.90;;;;;;5054290;28;20174;-68
2022/07/15 03:56:03;;;;;;;7.33;6.63;;;14.00;99.90;;;;;;5051218;28;20591;-69
2022/07/15 03:58:29;;;;;;;9.13;6.73;;;14.00;99.90;;;;;;5034882;28;20176;-69
2022/07/15 04:00:55;;;;;;;11.53;6.57;;;14.00;99.90;;;;;;5040460;28;20187;-68
2022/07/15 04:03:20;;;;;;;14.93;7.63;;;14.00;99.90;;;;;;5050828;28;20186;-66
2022/07/15 04:05:46;;;;;;;9.03;6.83;;;14.00;99.90;;;;;;5034133;28;20180;-65
2022/07/15 04:08:12;;;;;;;6.50;6.00;;;14.00;99.90;;;;;;5050051;28;20669;-65
2022/07/15 04:10:38;;;;;;;11.07;6.60;;;14.10;99.90;;;;;;5034285;28;20221;-64
2022/07/15 04:13:03;;;;;;;6.87;6.17;;;14.20;99.90;;;;;;5051955;28;20174;-64
2022/07/15 04:15:29;;;;;;;9.10;6.50;;;14.20;99.90;;;;;;5045767;28;20168;-64
2022/07/15 04:17:56;;;;;;;6.67;6.17;;;14.30;99.90;;;;;;5033693;28;20188;-64
2022/07/15 04:20:22;;;;;;;9.30;5.70;;;14.40;99.90;;;;;;5049242;28;20257;-64
2022/07/15 04:22:48;;;;;;;6.80;6.20;;;14.40;99.90;;;;;;5049393;28;20269;-64
2022/07/15 04:25:20;;;;;;;6.77;5.87;;;14.40;99.90;;;;;;5033051;28;20234;-64
2022/07/15 04:27:48;;;;;;;7.17;6.03;;;14.40;99.90;;;;;;5043412;28;20229;-64
2022/07/15 04:30:14;;;;;;;8.87;5.83;;;14.40;99.90;;;;;;5052515;28;20171;-65
2022/07/15 04:32:40;;;;;;;7.70;6.90;;;14.40;99.90;;;;;;5051110;28;20580;-64
2022/07/15 04:35:06;;;;;;;9.00;6.13;;;14.50;99.90;;;;;;5033433;28;20182;-64
2022/07/15 04:37:32;;;;;;;9.13;5.73;;;14.60;99.90;;;;;;5040733;28;20202;-65
2022/07/15 04:39:58;;;;;;;11.03;6.37;;;14.70;99.90;;;;;;5052195;28;20590;-65
2022/07/15 04:42:23;;;;;;;6.73;6.17;;;14.90;99.90;;;;;;5046528;28;20179;-65
2022/07/15 04:44:49;;;;;;;9.90;6.60;;;15.00;99.90;;;;;;5050110;28;20190;-65
2022/07/15 04:47:16;;;;;;;7.70;6.63;;;15.20;99.90;;;;;;5048383;28;20206;-65
2022/07/15 04:52:26;;;;;;;9.37;6.30;;;15.20;99.90;;;;;;5037430;28;20186;-65
2022/07/15 04:54:53;;;;;;;6.53;6.03;;;15.30;99.90;;;;;;5051716;28;20182;-65
2022/07/15 04:57:19;;;;;;;6.87;6.17;;;15.30;99.90;;;;;;5040224;28;20199;-65
2022/07/15 04:59:45;;;;;;;8.13;5.97;;;15.30;99.90;;;;;;5032173;28;20622;-65
2022/07/15 05:02:11;;;;;;;6.90;5.80;;;15.40;99.90;;;;;;5034400;28;20271;-65
2022/07/15 05:04:36;;;;;;;7.17;6.30;;;15.40;99.90;;;;;;5042871;28;20175;-65
2022/07/15 05:07:02;;;;;;;8.07;6.73;;;15.50;99.90;;;;;;5032057;28;20206;-65
2022/07/15 05:09:28;;;;;;;7.33;6.30;;;15.40;99.90;;;;;;5031894;28;20194;-65
2022/07/15 05:11:53;;;;;;;6.73;6.13;;;15.30;99.90;;;;;;5031981;28;20167;-65
2022/07/15 05:14:19;;;;;;;8.70;6.57;;;15.30;99.90;;;;;;5031804;28;20175;-65
2022/07/15 05:16:46;;;;;;;7.40;6.43;;;15.40;99.90;;;;;;5031771;28;20215;-65
2022/07/15 05:19:11;;;;;;;7.07;6.37;;;15.50;99.90;;;;;;5032222;28;20168;-65
2022/07/15 05:21:37;;;;;;;6.77;6.17;;;15.60;99.90;;;;;;5031814;28;20275;-64
2022/07/15 05:24:03;;;;;;;8.63;7.07;;;15.60;99.90;;;;;;5031515;28;20266;-64
2022/07/15 05:26:29;;;;;;;8.13;7.20;;;15.70;99.90;;;;;;5031826;28;20196;-65
2022/07/15 05:28:54;;;;;;;8.03;6.03;;;15.90;99.90;;;;;;5031036;28;20603;-64
2022/07/15 05:31:20;;;;;;;7.40;6.60;;;16.10;99.90;;;;;;5031899;28;20237;-64
2022/07/15 05:33:45;;;;;;;8.87;5.93;;;16.10;99.90;;;;;;5030422;28;20726;-65
2022/07/15 05:36:15;;;;;;;6.73;6.03;;;16.30;99.90;;;;;;5031698;28;20646;-65
2022/07/15 05:38:44;;;;;;;7.87;6.53;;;16.40;99.90;;;;;;5038198;28;20190;-64
2022/07/15 05:41:10;;;;;;;8.40;6.43;;;16.40;99.90;;;;;;5026090;28;20209;-64
2022/07/15 05:43:37;;;;;;;7.80;6.23;;;16.40;99.90;;;;;;5049614;28;20264;-65
2022/07/15 05:46:03;;;;;;;6.63;5.97;;;16.50;99.90;;;;;;5051679;28;20220;-65
2022/07/15 05:48:29;;;;;;;8.20;7.27;;;16.50;99.90;;;;;;5049740;28;20238;-65
2022/07/15 05:50:54;;;;;;;6.67;5.97;;;16.60;99.90;;;;;;5051534;28;20517;-65
2022/07/15 05:53:22;;;;;;;9.67;6.50;;;16.60;99.90;;;;;;5046649;28;20329;-65
2022/07/15 05:55:47;;;;;;;9.87;7.83;;;16.80;99.90;;;;;;5031394;28;20180;-64
2022/07/15 05:58:13;;;;;;;12.77;6.50;;;16.90;99.90;;;;;;5032559;28;20178;-65
2022/07/15 06:00:39;;;;;;;10.53;8.03;;;16.90;99.90;;;;;;5049947;28;20189;-65
2022/07/15 06:03:05;;;;;;;9.77;8.97;;;16.90;99.90;;;;;;5032087;28;20750;-64
2022/07/15 06:05:32;;;;;;;9.07;8.43;;;16.90;99.90;;;;;;5047062;28;20185;-64
2022/07/15 06:07:57;;;;;;;9.63;8.83;;;17.00;99.90;;;;;;5040691;28;20229;-65
2022/07/15 06:10:23;;;;;;;10.67;7.47;;;16.80;99.90;;;;;;5037193;28;20180;-65
2022/07/15 06:12:49;;;;;;;9.00;8.20;;;16.80;99.90;;;;;;5035586;28;20183;-64
2022/07/15 06:15:15;;;;;;;8.03;6.80;;;16.90;99.90;;;;;;5038867;28;20183;-64
2022/07/15 06:17:40;;;;;;;7.10;5.63;;;17.20;99.90;;;;;;5030968;28;20203;-64
2022/07/15 06:20:07;;;;;;;8.37;7.63;;;17.50;99.90;;;;;;5012369;28;20587;-64
2022/07/15 06:22:33;;;;;;;10.63;9.57;;;17.80;99.90;;;;;;5044550;28;20175;-65
2022/07/15 06:24:59;;;;;;;7.33;6.60;;;18.10;99.90;;;;;;5038762;28;20183;-65
2022/07/15 06:27:24;;;;;;;8.37;6.67;;;18.50;99.90;;;;;;5050185;28;20730;-65
2022/07/15 06:29:51;;;;;;;6.40;5.70;;;18.80;99.90;;;;;;5033642;28;20270;-64
2022/07/15 06:32:18;;;;;;;9.40;6.60;;;19.10;99.90;;;;;;5032230;28;20185;-65
2022/07/15 06:34:44;;;;;;;6.27;5.63;;;19.30;99.90;;;;;;5037036;28;20662;-65
2022/07/15 06:37:10;;;;;;;12.13;5.77;;;19.30;99.90;;;;;;5048015;28;20260;-64
2022/07/15 06:39:36;;;;;;;7.20;6.57;;;19.60;99.90;;;;;;5034743;28;20229;-65
2022/07/15 06:42:02;;;;;;;7.00;6.40;;;19.90;99.90;;;;;;5045595;28;20187;-64
2022/07/15 06:44:28;;;;;;;5.73;5.30;;;20.20;99.90;;;;;;5034499;28;20183;-64
2022/07/15 06:46:54;;;;;;;7.13;5.43;;;20.40;99.90;;;;;;5034761;28;20199;-65
2022/07/15 06:49:19;;;;;;;6.13;5.47;;;20.40;99.90;;;;;;5035199;28;20207;-65
2022/07/15 06:51:45;;;;;;;8.75;6.00;;;20.70;99.90;;;;;;5035064;28;20179;-65
2022/07/15 06:54:11;;;;;;;9.10;5.10;;;20.80;99.90;;;;;;5042407;28;20204;-65
2022/07/15 06:56:37;;;;;;;7.18;5.90;;;21.00;99.90;;;;;;5041021;28;20202;-65
2022/07/15 06:59:03;;;;;;;7.10;4.90;;;21.40;99.90;;;;;;5039801;28;20183;-65
2022/07/15 07:01:29;;;;;;;8.27;4.72;;;21.90;99.90;;;;;;5034328;28;20218;-65
2022/07/15 07:03:55;;;;;;;7.20;4.80;;;22.00;99.90;;;;;;5034088;28;20211;-65
2022/07/15 07:06:21;;;;;;;5.65;4.53;;;22.00;99.90;;;;;;5033233;28;20719;-65
2022/07/15 07:08:47;;;;;;;12.35;5.30;;;21.80;99.90;;;;;;5034139;28;20277;-65
2022/07/15 07:11:13;;;;;;;4.95;4.50;;;22.00;99.90;;;;;;5034283;28;20171;-65
2022/07/15 07:13:39;;;;;;;4.93;4.47;;;22.30;99.90;;;;;;5033864;28;20175;-65
2022/07/15 07:16:05;;;;;;;6.55;4.53;;;22.30;99.90;;;;;;5034051;28;20264;-65
2022/07/15 07:18:31;;;;;;;7.78;4.57;;;22.20;99.90;;;;;;5034050;28;20257;-65
2022/07/15 07:20:57;;;;;;;4.75;4.28;;;22.30;99.90;;;;;;5034176;28;20183;-65
2022/07/15 07:23:26;;;;;;;4.55;4.15;;;22.60;99.90;;;;;;5033809;28;20167;-65
2022/07/15 07:25:55;;;;;;;7.03;4.28;;;22.90;99.90;;;;;;5033998;28;20182;-65
2022/07/15 07:28:21;;;;;;;6.97;4.03;;;23.30;99.90;;;;;;5033506;28;20204;-65
2022/07/15 07:30:49;;;;;;;4.80;4.30;;;23.60;99.90;;;;;;5033911;28;20172;-65
2022/07/15 07:33:14;;;;;;;6.22;4.20;;;23.90;99.90;;;;;;5033993;28;20183;-65
2022/07/15 07:35:40;;;;;;;6.63;4.50;;;24.10;99.90;;;;;;5033267;28;20180;-65
2022/07/15 07:38:06;;;;;;;4.75;3.88;;;23.90;99.90;;;;;;5047528;28;20182;-65
2022/07/15 07:40:31;;;;;;;3.85;3.55;;;23.90;99.90;;;;;;5052024;28;20178;-65
2022/07/15 07:42:57;;;;;;;4.20;3.75;;;24.10;99.90;;;;;;5051171;28;20679;-64
2022/07/15 07:45:23;;;;;;;4.38;3.45;;;24.10;99.90;;;;;;5032091;28;20253;-64
2022/07/15 07:47:49;;;;;;;5.25;3.67;;;24.30;99.90;;;;;;5033079;28;20215;-65
2022/07/15 07:50:16;;;;;;;6.65;3.95;;;24.20;99.90;;;;;;5053524;28;20186;-64
2022/07/15 07:52:42;;;;;;;6.75;4.25;;;24.10;99.90;;;;;;5047489;28;20240;-64
2022/07/15 07:55:09;;;;;;;6.15;3.95;;;24.10;99.90;;;;;;5051644;28;20176;-64
2022/07/15 07:57:35;;;;;;;4.30;3.90;;;24.20;99.90;;;;;;5051459;28;20290;-65
2022/07/15 08:00:02;;;;;;;4.03;3.67;;;24.50;99.90;;;;;;5050772;28;20175;-65
2022/07/15 08:02:28;;;;;;;4.60;4.15;;;25.10;99.90;;;;;;5033567;28;20179;-65
2022/07/15 08:04:54;;;;;;;4.10;3.70;;;25.70;99.90;;;;;;5033335;28;20172;-64
2022/07/15 08:07:19;;;;;;;5.20;4.20;;;26.20;99.90;;;;;;5053228;28;20194;-65
2022/07/15 08:09:45;;;;;;;4.80;4.30;;;25.80;99.90;;;;;;5047877;28;20199;-65
2022/07/15 08:12:11;;;;;;;6.72;3.88;;;25.40;99.90;;;;;;5033343;28;20672;-65
2022/07/15 08:14:36;;;;;;;5.43;4.05;;;24.90;99.90;;;;;;5032696;28;20702;-65
2022/07/15 08:17:02;;;;;;;7.05;3.97;;;24.50;99.90;;;;;;5050120;28;20198;-65
2022/07/15 08:19:28;;;;;;;4.70;3.63;;;24.00;99.90;;;;;;5042087;28;20306;-65
2022/07/15 08:21:53;;;;;;;6.22;4.25;;;23.40;99.90;;;;;;5047126;28;20224;-65
2022/07/15 08:24:19;;;;;;;4.28;3.67;;;22.80;99.90;;;;;;5052406;28;20175;-64
2022/07/15 08:26:45;;;;;;;5.60;4.88;;;22.30;99.90;;;;;;5042654;28;20198;-65
2022/07/15 08:29:11;;;;;;;4.80;4.00;;;22.10;99.90;;;;;;5052786;28;20210;-65
2022/07/15 08:31:38;;;;;;;5.43;3.90;;;22.20;99.90;;;;;;5038745;28;20171;-65
2022/07/15 08:34:05;;;;;;;4.80;3.83;;;22.60;99.90;;;;;;5032430;28;20159;-64
2022/07/15 08:36:31;;;;;;;5.80;3.67;;;23.10;99.90;;;;;;5042964;28;20264;-64
2022/07/15 08:38:56;;;;;;;4.20;3.58;;;23.80;99.90;;;;;;5046636;28;20603;-65
2022/07/15 08:41:22;;;;;;;5.05;3.38;;;24.10;99.90;;;;;;5049697;28;20215;-64
2022/07/15 08:43:48;;;;;;;6.30;3.03;;;24.50;99.90;;;;;;5050732;28;20178;-64
2022/07/15 08:46:15;;;;;;;4.07;3.67;;;25.00;99.90;;;;;;5052359;28;20368;-65
2022/07/15 08:48:46;;;;;;;3.50;2.90;;;25.30;99.90;;;;;;5052190;28;20195;-65
2022/07/15 08:51:13;;;;;;;2.72;2.60;;;25.60;99.90;;;;;;5051294;28;20186;-65
2022/07/15 08:53:39;;;;;;;3.58;3.20;;;25.80;99.90;;;;;;5052181;28;20174;-65
2022/07/15 08:56:05;;;;;;;4.65;3.47;;;25.80;99.90;;;;;;5052102;28;20186;-65
2022/07/15 08:58:34;;;;;;;2.97;2.78;;;25.90;99.90;;;;;;5051842;28;20208;-65
2022/07/15 09:01:00;;;;;;;3.55;3.25;;;25.70;99.90;;;;;;5052303;28;20190;-65
2022/07/15 09:03:26;;;;;;;3.55;3.35;;;25.20;99.90;;;;;;5051807;28;20178;-65
2022/07/15 09:05:51;;;;;;;4.03;3.60;;;24.80;99.90;;;;;;5051948;28;20607;-65
2022/07/15 09:08:19;;;;;;;3.50;3.22;;;24.50;99.90;;;;;;5051898;28;20287;-65
2022/07/15 09:10:47;;;;;;;3.67;3.38;;;24.30;99.90;;;;;;5051933;28;20189;-64
2022/07/15 09:13:39;;;;;;;4.53;3.53;;;24.20;99.90;;;;;;5052086;28;20171;-65
2022/07/15 09:16:05;;;;;;;3.13;2.92;;;24.30;99.90;;;;;;5051603;28;20191;-65
2022/07/15 09:18:35;;;;;;;3.20;3.00;;;24.60;99.90;;;;;;5051703;28;20202;-65
2022/07/15 09:21:01;;;;;;;3.20;2.90;;;25.00;99.90;;;;;;5051911;28;20175;-65
2022/07/15 09:23:29;;;;;;;3.28;2.97;;;25.30;99.90;;;;;;5051460;28;20171;-65
2022/07/15 09:25:58;;;;;;;3.92;3.50;;;26.00;99.90;;;;;;5051660;28;20185;-65
2022/07/15 09:28:41;;;;;;;2.95;2.80;;;25.90;99.90;;;;;;5047723;28;20207;-64
2022/07/15 09:33:59;;;;;;;3.53;2.88;;;25.80;99.90;;;;;;5031659;28;20178;-65
2022/07/15 09:36:27;;;;;;;4.03;3.30;;;26.30;99.90;;;;;;5031190;28;20261;-65
2022/07/15 09:38:55;;;;;;;4.93;3.35;;;26.50;99.90;;;;;;5031583;28;20167;-65
2022/07/15 09:41:26;;;;;;;5.32;3.45;;;26.40;99.90;;;;;;5031581;28;20201;-64
2022/07/15 09:44:01;;;;;;;3.38;2.92;;;25.50;99.90;;;;;;5035804;28;20273;-65
2022/07/15 09:46:47;;;;;;;3.60;3.40;;;24.50;99.90;;;;;;5037066;28;20194;-65
2022/07/15 09:49:17;;;;;;;3.50;3.25;;;23.70;99.90;;;;;;5031676;28;20210;-64
2022/07/15 09:51:50;;;;;;;3.60;3.40;;;23.40;99.90;;;;;;5035172;28;20258;-65
2022/07/15 09:54:17;;;;;;;3.33;3.08;;;23.50;99.90;;;;;;5030894;28;20171;-64
2022/07/15 09:56:45;;;;;;;3.80;3.17;;;23.90;99.90;;;;;;5031000;28;20195;-64
2022/07/15 09:59:11;;;;;;;3.33;3.13;;;25.00;99.90;;;;;;5031528;28;20551;-65
2022/07/15 10:01:36;;;;;;;3.30;3.10;;;25.70;99.90;;;;;;5032561;28;20171;-65
2022/07/15 10:04:04;;;;;;;3.22;3.00;;;25.60;99.90;;;;;;5051000;28;20186;-65
2022/07/15 10:06:32;;;;;;;4.50;3.20;;;25.00;99.90;;;;;;5050101;28;20694;-65
2022/07/15 10:08:58;;;;;;;4.10;3.63;;;24.10;99.90;;;;;;5031445;28;20203;-65
2022/07/15 10:11:24;;;;;;;3.72;3.50;;;23.50;99.90;;;;;;5038949;28;20181;-65
2022/07/15 10:14:08;;;;;;;4.07;3.10;;;22.80;99.90;;;;;;5034908;28;20187;-65
2022/07/15 10:16:36;;;;;;;3.42;3.17;;;22.70;99.90;;;;;;5035137;28;20183;-65
2022/07/15 10:19:34;;;;;;;4.13;2.97;;;23.00;99.90;;;;;;5035581;28;20254;-66
2022/07/15 10:22:18;;;;;;;3.20;2.90;;;23.50;99.90;;;;;;5035310;28;20268;-65
2022/07/15 10:25:02;;;;;;;3.40;3.20;;;23.70;99.90;;;;;;5035029;28;20668;-65
2022/07/15 10:27:47;;;;;;;3.42;3.13;;;23.30;99.90;;;;;;5035436;28;20274;-65
2022/07/15 10:30:20;;;;;;;3.55;3.28;;;23.10;99.90;;;;;;5034963;28;20184;-66
2022/07/15 10:33:08;;;;;;;3.13;2.90;;;23.50;99.90;;;;;;5050175;28;20186;-65
2022/07/15 10:35:38;;;;;;;3.70;2.92;;;24.40;99.90;;;;;;5054467;28;20266;-66
2022/07/15 10:38:20;;;;;;;3.47;3.28;;;24.80;99.90;;;;;;5039244;28;20286;-65
2022/07/15 10:40:57;;;;;;;3.40;3.10;;;25.00;99.90;;;;;;5034907;28;20246;-65
2022/07/15 10:43:45;;;;;;;3.22;2.90;;;25.20;99.90;;;;;;5053629;28;20257;-65
2022/07/15 10:46:16;;;;;;;3.20;2.90;;;25.60;99.90;;;;;;5053957;28;20191;-65
2022/07/15 10:48:43;;;;;;;3.63;3.13;;;25.30;99.90;;;;;;5034557;28;20265;-65
2022/07/15 10:51:09;;;;;;;3.45;3.15;;;25.20;99.90;;;;;;5034960;28;20171;-65
2022/07/15 10:53:47;;;;;;;4.70;2.97;;;25.40;99.90;;;;;;5053937;28;20189;-65
2022/07/15 10:56:35;;;;;;;4.10;3.47;;;25.90;99.90;;;;;;5035589;28;20195;-65
2022/07/15 10:59:20;;;;;;;3.40;3.10;;;25.90;99.90;;;;;;5034705;28;20638;-65
2022/07/15 11:01:49;;;;;;;3.08;2.88;;;24.80;99.90;;;;;;5014790;28;20190;-65
2022/07/15 11:04:17;;;;;;;3.90;3.17;;;24.50;99.90;;;;;;5017365;28;20268;-65
2022/07/15 11:07:01;;;;;;;4.50;3.05;;;24.10;99.90;;;;;;5054452;28;20186;-65
2022/07/15 11:10:09;;;;;;;5.18;3.63;;;24.50;99.90;;;;;;5051546;28;20211;-65
2022/07/15 11:12:36;;;;;;;3.30;3.00;;;24.30;99.90;;;;;;5031231;28;20223;-65
2022/07/15 11:15:13;;;;;;;3.67;3.42;;;24.70;99.90;;;;;;5040905;28;20587;-65
2022/07/15 11:17:42;;;;;;;3.28;2.92;;;25.10;99.90;;;;;;5054329;28;20555;-65
2022/07/15 11:20:09;;;;;;;4.07;3.17;;;25.30;99.90;;;;;;5045665;28;20168;-65
2022/07/15 11:22:42;;;;;;;3.38;3.10;;;25.00;99.90;;;;;;5034286;28;20182;-65
2022/07/15 11:25:20;;;;;;;4.97;3.50;;;24.50;99.90;;;;;;5040530;28;20167;-65
2022/07/15 11:28:21;;;;;;;3.25;2.97;;;24.20;99.90;;;;;;5053974;28;20217;-65
2022/07/15 11:30:53;;;;;;;3.75;3.55;;;24.10;99.90;;;;;;5020514;28;20201;-65
2022/07/15 11:33:21;;;;;;;3.50;3.20;;;24.00;99.90;;;;;;5030587;28;20192;-65
2022/07/15 11:35:53;;;;;;;4.03;3.30;;;24.10;99.90;;;;;;5044310;28;20183;-65
2022/07/15 11:38:22;;;;;;;4.07;3.22;;;24.40;99.90;;;;;;5053686;28;20189;-65
2022/07/15 11:46:22;;;;;;;3.00;2.80;;;26.20;99.90;;;;;;5053651;28;20205;-65
2022/07/15 11:48:49;;;;;;;3.65;3.33;;;26.40;99.90;;;;;;5040954;28;20676;-65
2022/07/15 11:51:15;;;;;;;3.30;3.10;;;25.90;99.90;;;;;;5033922;28;20566;-65
2022/07/15 11:53:47;;;;;;;4.88;2.67;;;25.60;99.90;;;;;;5043954;28;20179;-65
2022/07/15 11:56:13;;;;;;;4.40;3.45;;;25.40;99.90;;;;;;5053634;28;20688;-65
2022/07/15 11:58:43;;;;;;;3.25;2.97;;;25.50;99.90;;;;;;5043062;28;20192;-65
2022/07/15 12:01:14;;;;;;;3.63;3.20;;;25.20;99.90;;;;;;5032725;28;20203;-65
2022/07/15 12:03:42;;;;;;;4.28;3.75;;;25.00;99.90;;;;;;5042448;28;20183;-65
2022/07/15 12:06:19;;;;;;;4.57;3.50;;;25.20;99.90;;;;;;5053259;28;20221;-65
2022/07/15 12:08:52;;;;;;;3.45;3.22;;;25.40;99.90;;;;;;5043366;28;20210;-65
2022/07/15 12:11:28;;;;;;;3.22;3.03;;;25.20;99.90;;;;;;5041864;28;20542;-65
2022/07/15 12:14:07;;;;;;;3.42;3.13;;;25.50;99.90;;;;;;5052958;28;20246;-65
2022/07/15 12:16:40;;;;;;;3.25;3.05;;;26.30;99.90;;;;;;5042699;28;20286;-65
2022/07/15 12:19:08;;;;;;;3.33;3.03;;;26.80;99.90;;;;;;5033521;28;20183;-65
2022/07/15 12:21:35;;;;;;;8.05;2.67;;;26.30;99.90;;;;;;5042302;28;20345;-65
2022/07/15 12:24:15;;;;;;;4.00;3.53;;;26.20;99.90;;;;;;5053130;28;20712;-65
2022/07/15 12:27:01;;;;;;;3.72;3.33;;;26.10;99.90;;;;;;5042672;28;20233;-65
2022/07/15 12:29:31;;;;;;;3.22;3.08;;;26.00;99.90;;;;;;5032746;28;20222;-65
2022/07/15 12:32:09;;;;;;;3.10;2.90;;;25.80;99.90;;;;;;5043941;28;20181;-65
2022/07/15 12:34:46;;;;;;;3.78;3.40;;;25.30;99.90;;;;;;5049829;28;20232;-65
2022/07/15 12:37:17;;;;;;;3.65;3.20;;;25.20;99.90;;;;;;5052588;28;20206;-65
2022/07/15 12:40:05;;;;;;;3.67;2.90;;;25.10;99.90;;;;;;5039985;28;20195;-65
2022/07/15 12:42:38;;;;;;;2.97;2.70;;;24.90;99.90;;;;;;5047110;28;20544;-65
2022/07/15 12:45:05;;;;;;;4.07;3.10;;;24.80;99.90;;;;;;5052417;28;20175;-65
2022/07/15 12:47:31;;;;;;;2.78;2.60;;;24.60;99.90;;;;;;5052549;28;20186;-65
2022/07/15 12:49:59;;;;;;;3.00;2.90;;;24.60;99.90;;;;;;5052602;28;20209;-65
2022/07/15 12:52:38;;;;;;;3.33;3.13;;;24.60;99.90;;;;;;5051588;28;20171;-65
2022/07/15 12:55:18;;;;;;;2.80;2.67;;;24.30;99.90;;;;;;5052212;28;20193;-65
2022/07/15 12:57:44;;;;;;;3.63;3.33;;;24.30;99.90;;;;;;5052176;28;20222;-65
2022/07/15 13:00:20;;;;;;;3.65;3.30;;;23.90;99.90;;;;;;5052346;28;20202;-65
2022/07/15 13:02:59;;;;;;;3.22;2.90;;;23.50;99.90;;;;;;5044420;28;20190;-65